createdAt,value
2023-01-02T00:02:40.450Z,61.17
2023-01-02T00:06:35.059Z,57.08
2023-01-02T00:10:28.301Z,57.85
2023-01-02T00:14:21.151Z,62.58
2023-01-02T00:18:14.034Z,57.00
2023-01-02T00:22:06.554Z,53.85
2023-01-02T00:25:59.383Z,56.60
2023-01-02T00:29:51.970Z,51.08
2023-01-02T00:33:44.896Z,54.10
2023-01-02T00:37:37.669Z,55.47
2023-01-02T00:41:30.431Z,57.80
2023-01-02T00:45:23.074Z,59.05
2023-01-02T00:49:15.955Z,54.67
2023-01-02T00:53:08.643Z,59.80
2023-01-02T00:57:01.249Z,59.47
2023-01-02T01:00:53.965Z,63.88
2023-01-02T01:04:46.745Z,68.28
2023-01-02T01:08:39.358Z,57.22
2023-01-02T01:12:32.219Z,60.78
2023-01-02T01:16:26.657Z,63.60
2023-01-02T01:20:19.656Z,62.85
2023-01-02T01:24:12.450Z,61.60
2023-01-02T01:28:04.917Z,62.80
2023-01-02T01:31:57.841Z,64.43
2023-01-02T01:35:50.528Z,68.28
2023-01-02T01:39:43.105Z,70.93
2023-01-02T01:43:40.131Z,72.75
2023-01-02T01:47:39.101Z,79.00
2023-01-02T01:51:43.375Z,75.75
2023-01-02T01:55:42.124Z,75.07
2023-01-02T01:59:35.592Z,71.53
2023-01-02T02:03:31.218Z,67.15
2023-01-02T02:07:23.927Z,71.22
2023-01-02T02:11:17.807Z,73.97
2023-01-02T02:15:13.436Z,66.82
2023-01-02T02:19:36.467Z,78.50
2023-01-02T02:24:07.833Z,84.22
2023-01-02T02:28:29.197Z,76.30
2023-01-02T02:32:37.215Z,79.15
2023-01-02T02:37:08.851Z,69.72
2023-01-02T02:41:29.455Z,72.68
2023-01-02T02:45:45.593Z,73.30
2023-01-02T02:49:50.556Z,74.90
2023-01-02T02:53:49.441Z,83.97
2023-01-02T02:57:44.295Z,77.45
2023-01-02T03:05:38.001Z,80.38
2023-01-02T03:09:58.509Z,83.35
2023-01-02T03:14:05.136Z,88.90
2023-01-02T03:18:32.045Z,79.72
2023-01-02T03:22:33.543Z,86.60
2023-01-02T03:26:31.258Z,75.65
2023-01-02T03:34:25.764Z,82.53
2023-01-02T03:38:27.491Z,83.05
2023-01-02T03:42:37.320Z,88.45
2023-01-02T03:46:38.975Z,81.78
2023-01-02T03:50:41.214Z,88.15
2023-01-02T03:54:33.919Z,92.85
2023-01-02T03:59:01.460Z,102.45
2023-01-02T04:03:06.744Z,89.25
2023-01-02T04:07:04.781Z,83.88
2023-01-02T04:11:00.047Z,91.10
2023-01-02T04:15:08.209Z,79.65
2023-01-02T04:19:07.879Z,83.40
2023-01-02T04:23:10.769Z,70.95
2023-01-02T04:27:12.526Z,68.32
2023-01-02T04:31:12.335Z,69.88
2023-01-02T04:35:14.763Z,70.72
2023-01-02T04:39:08.207Z,72.00
2023-01-02T04:43:01.026Z,69.53
2023-01-02T04:46:53.666Z,67.13
2023-01-02T04:50:46.474Z,65.18
2023-01-02T04:54:38.980Z,62.47
2023-01-02T04:58:31.651Z,58.97
2023-01-02T05:02:24.363Z,63.67
2023-01-02T05:06:17.252Z,62.17
2023-01-02T05:10:10.332Z,56.95
2023-01-02T05:14:07.406Z,64.43
2023-01-02T05:18:00.632Z,58.30
2023-01-02T05:22:12.195Z,74.05
2023-01-02T05:26:11.278Z,68.40
2023-01-02T05:30:04.917Z,64.05
2023-01-02T05:33:58.865Z,61.85
2023-01-02T05:37:51.614Z,65.28
2023-01-02T05:41:44.306Z,55.58
2023-01-02T05:45:36.980Z,56.85
2023-01-02T05:49:29.927Z,58.65
2023-01-02T05:53:22.486Z,53.83
2023-01-02T05:57:15.982Z,54.22
2023-01-02T06:01:18.545Z,57.85
2023-01-02T06:09:05.794Z,57.10
2023-01-02T06:12:58.381Z,58.47
2023-01-02T06:16:51.082Z,59.20
2023-01-02T06:20:43.710Z,52.85
2023-01-02T06:24:36.332Z,62.50
2023-01-02T06:28:29.039Z,60.88
2023-01-02T06:32:21.636Z,55.47
2023-01-02T06:36:17.643Z,53.85
2023-01-02T06:40:11.277Z,65.72
2023-01-02T06:44:04.080Z,63.13
2023-01-02T06:47:58.213Z,57.92
2023-01-02T06:51:51.160Z,58.40
2023-01-02T06:55:54.857Z,56.10
2023-01-02T06:59:47.693Z,49.67
2023-01-02T07:03:40.638Z,56.70
2023-01-02T07:07:33.654Z,50.10
2023-01-02T07:11:27.045Z,51.10
2023-01-02T07:15:19.777Z,52.17
2023-01-02T07:19:12.687Z,48.67
2023-01-02T07:23:06.082Z,49.70
2023-01-02T07:26:58.717Z,49.53
2023-01-02T07:30:51.782Z,47.17
2023-01-02T07:34:44.718Z,53.72
2023-01-02T07:38:38.529Z,54.05
2023-01-02T07:42:31.053Z,50.97
2023-01-02T07:46:24.597Z,57.08
2023-01-02T07:50:17.280Z,53.50
2023-01-02T07:54:10.481Z,52.83
2023-01-02T07:58:04.140Z,51.85
2023-01-02T08:01:56.958Z,54.20
2023-01-02T08:05:50.014Z,47.20
2023-01-02T08:09:42.744Z,54.58
2023-01-02T08:13:35.826Z,50.00
2023-01-02T08:17:30.365Z,51.97
2023-01-02T08:21:24.130Z,49.38
2023-01-02T08:25:16.803Z,55.58
2023-01-02T08:29:09.667Z,55.53
2023-01-02T08:33:02.709Z,48.30
2023-01-02T08:36:55.522Z,49.10
2023-01-02T08:40:48.279Z,47.97
2023-01-02T08:44:41.016Z,40.80
2023-01-02T08:48:34.870Z,39.53
2023-01-02T08:52:27.305Z,44.30
2023-01-02T08:56:28.887Z,40.45
2023-01-02T09:00:21.704Z,44.25
2023-01-02T09:04:14.416Z,48.15
2023-01-02T09:08:06.941Z,42.03
2023-01-02T09:12:00.853Z,45.50
2023-01-02T09:15:54.027Z,43.97
2023-01-02T09:19:47.313Z,47.15
2023-01-02T09:23:39.951Z,44.20
2023-01-02T09:27:32.623Z,43.10
2023-01-02T09:31:26.481Z,44.72
2023-01-02T09:35:19.073Z,43.95
2023-01-02T09:39:12.931Z,51.35
2023-01-02T09:43:05.660Z,47.75
2023-01-02T09:47:08.757Z,43.85
2023-01-02T09:51:07.506Z,50.63
2023-01-02T09:55:01.384Z,46.13
2023-01-02T09:59:05.978Z,57.42
2023-01-02T10:03:08.592Z,59.03
2023-01-02T10:07:08.665Z,66.10
2023-01-02T10:11:27.539Z,66.30
2023-01-02T10:15:45.430Z,80.68
2023-01-02T10:19:51.318Z,69.63
2023-01-02T10:23:55.399Z,63.70
2023-01-02T10:28:10.282Z,56.67
2023-01-02T10:32:11.517Z,57.03
2023-01-02T10:36:04.496Z,47.20
2023-01-02T10:39:58.062Z,40.28
2023-01-02T10:43:56.336Z,37.25
2023-01-02T10:47:48.926Z,33.38
2023-01-02T10:51:48.456Z,34.03
2023-01-02T10:55:45.139Z,35.55
2023-01-02T10:59:38.687Z,33.50
2023-01-02T11:03:31.592Z,37.45
2023-01-02T11:07:26.272Z,29.63
2023-01-02T11:11:20.214Z,34.30
2023-01-02T11:15:14.390Z,32.13
2023-01-02T11:19:07.866Z,34.90
2023-01-02T11:23:02.899Z,31.30
2023-01-02T11:26:56.756Z,29.65
2023-01-02T11:31:00.462Z,33.53
2023-01-02T11:35:01.079Z,34.58
2023-01-02T11:38:56.933Z,35.08
2023-01-02T11:43:10.744Z,32.47
2023-01-02T11:47:04.495Z,31.02
2023-01-02T11:50:57.845Z,34.15
2023-01-02T11:54:59.605Z,35.85
2023-01-02T11:59:13.671Z,34.58
2023-01-02T12:03:22.499Z,36.05
2023-01-02T12:08:01.415Z,34.53
2023-01-02T12:12:24.569Z,37.85
2023-01-02T12:16:17.418Z,39.33
2023-01-02T12:20:41.397Z,36.95
2023-01-02T12:24:46.774Z,35.22
2023-01-02T12:29:04.588Z,42.08
2023-01-02T12:33:28.094Z,42.33
2023-01-02T12:37:41.909Z,43.28
2023-01-02T12:42:01.299Z,39.78
2023-01-02T12:46:15.392Z,42.92
2023-01-02T12:50:08.240Z,42.60
2023-01-02T12:54:18.925Z,39.30
2023-01-02T12:58:42.486Z,43.25
2023-01-02T13:03:12.854Z,50.30
2023-01-02T13:07:14.475Z,56.70
2023-01-02T13:11:10.342Z,55.00
2023-01-02T13:15:14.750Z,55.65
2023-01-02T13:19:17.004Z,53.17
2023-01-02T13:23:31.706Z,49.83
2023-01-02T13:27:25.264Z,56.92
2023-01-02T13:31:45.439Z,58.05
2023-01-02T13:35:37.819Z,56.08
2023-01-02T13:39:45.106Z,52.60
2023-01-02T13:43:39.289Z,54.17
2023-01-02T13:47:36.695Z,53.95
2023-01-02T13:55:25.384Z,55.40
2023-01-02T13:59:42.460Z,53.72
2023-01-02T14:03:35.630Z,48.50
2023-01-02T14:07:29.798Z,48.45
2023-01-02T14:11:31.368Z,46.33
2023-01-02T14:16:19.209Z,50.28
2023-01-02T14:20:28.080Z,57.30
2023-01-02T14:24:36.005Z,55.83
2023-01-02T14:32:39.111Z,54.03
2023-01-02T14:36:52.548Z,51.67
2023-01-02T14:40:47.346Z,48.13
2023-01-02T14:44:46.649Z,45.83
2023-01-02T14:49:25.708Z,53.22
2023-01-02T14:53:26.767Z,53.40
2023-01-02T14:57:33.484Z,48.22
2023-01-02T15:01:42.968Z,50.13
2023-01-02T15:05:48.208Z,59.03
2023-01-02T15:09:46.979Z,56.05
2023-01-02T15:14:05.697Z,56.33
2023-01-02T15:17:53.296Z,67.20
2023-01-02T15:21:47.327Z,65.82
2023-01-02T15:25:41.613Z,56.92
2023-01-02T15:29:34.654Z,68.28
2023-01-02T15:33:34.599Z,64.75
2023-01-02T15:37:27.289Z,79.13
2023-01-02T15:41:20.876Z,62.88
2023-01-02T15:45:17.731Z,72.35
2023-01-02T15:49:14.712Z,84.28
2023-01-02T15:53:15.365Z,73.50
2023-01-02T15:57:14.681Z,69.47
2023-01-02T16:01:10.933Z,65.57
2023-01-02T16:05:17.338Z,82.25
2023-01-02T16:09:36.515Z,75.13
2023-01-02T16:13:54.979Z,71.97
2023-01-02T16:21:41.788Z,74.80
2023-01-02T16:25:37.239Z,79.97
2023-01-02T16:29:30.584Z,69.93
2023-01-02T16:33:30.548Z,87.13
2023-01-02T16:37:31.885Z,79.97
2023-01-02T16:41:34.268Z,70.05
2023-01-02T16:45:27.969Z,76.90
2023-01-02T16:49:22.936Z,77.22
2023-01-02T16:53:24.033Z,76.93
2023-01-02T16:57:21.415Z,81.68
2023-01-02T17:01:18.307Z,73.32
2023-01-02T17:05:22.012Z,73.53
2023-01-02T17:09:14.743Z,78.22
2023-01-02T17:13:07.493Z,79.38
2023-01-02T17:17:00.823Z,67.55
2023-01-02T17:20:53.345Z,70.47
2023-01-02T17:24:46.243Z,79.20
2023-01-02T17:28:38.951Z,80.55
2023-01-02T17:32:32.596Z,81.95
2023-01-02T17:36:25.315Z,78.18
2023-01-02T17:40:19.603Z,100.07
2023-01-02T17:44:12.532Z,81.93
2023-01-02T17:48:10.897Z,91.55
2023-01-02T17:52:04.390Z,91.88
2023-01-02T17:56:20.501Z,98.30
2023-01-02T18:00:14.486Z,82.03
2023-01-02T18:04:07.317Z,80.10
2023-01-02T18:08:00.121Z,80.43
2023-01-02T18:11:53.213Z,85.55
2023-01-02T18:15:46.035Z,75.90
2023-01-02T18:19:39.207Z,81.95
2023-01-02T18:23:32.214Z,72.15
2023-01-02T18:27:29.533Z,71.97
2023-01-02T18:31:22.696Z,73.35
2023-01-02T18:35:47.110Z,78.88
2023-01-02T18:39:42.922Z,67.03
2023-01-02T18:43:37.273Z,71.05
2023-01-02T18:47:38.397Z,76.47
2023-01-02T18:51:31.666Z,84.28
2023-01-02T18:55:27.983Z,79.45
2023-01-02T18:59:32.692Z,79.97
2023-01-02T19:03:27.894Z,81.03
2023-01-02T19:07:30.988Z,75.55
2023-01-02T19:11:52.528Z,75.70
2023-01-02T19:15:51.644Z,78.10
2023-01-02T19:19:44.912Z,81.40
2023-01-02T19:24:14.312Z,86.78
2023-01-02T19:28:22.424Z,78.70
2023-01-02T19:32:15.049Z,80.53
2023-01-02T19:36:24.233Z,64.72
2023-01-02T19:40:22.299Z,77.28
2023-01-02T19:44:15.586Z,74.13
2023-01-02T19:48:12.518Z,72.35
2023-01-02T19:52:10.348Z,84.57
2023-01-02T19:56:04.375Z,77.70
2023-01-02T19:59:59.499Z,77.43
2023-01-02T20:03:53.815Z,85.75
2023-01-02T20:07:47.767Z,69.15
2023-01-02T20:12:07.215Z,76.07
2023-01-02T20:16:01.449Z,78.13
2023-01-02T20:19:55.807Z,73.53
2023-01-02T20:23:56.152Z,84.40
2023-01-02T20:28:07.989Z,82.68
2023-01-02T20:32:02.502Z,79.78
2023-01-02T20:35:56.032Z,73.60
2023-01-02T20:39:53.685Z,70.05
2023-01-02T20:47:43.220Z,63.85
2023-01-02T20:51:37.867Z,59.10
2023-01-02T20:55:31.955Z,58.22
2023-01-02T20:59:28.000Z,55.45
2023-01-02T21:03:22.153Z,60.00
2023-01-02T21:07:16.876Z,62.67
2023-01-02T21:11:11.490Z,60.92
2023-01-02T21:15:05.448Z,60.10
2023-01-02T21:19:01.119Z,56.92
2023-01-02T21:22:55.877Z,57.40
2023-01-02T21:26:49.096Z,55.20
2023-01-02T21:30:43.867Z,56.80
2023-01-02T21:34:37.159Z,55.08
2023-01-02T21:38:30.411Z,58.10
2023-01-02T21:42:23.777Z,52.47
2023-01-02T21:46:16.745Z,63.78
2023-01-02T21:50:10.110Z,65.45
2023-01-02T21:54:02.936Z,64.85
2023-01-02T21:58:13.006Z,59.97
2023-01-02T22:02:07.795Z,64.45
2023-01-02T22:06:00.365Z,58.95
2023-01-02T22:09:53.130Z,69.65
2023-01-02T22:13:45.702Z,60.42
2023-01-02T22:17:38.360Z,54.58
2023-01-02T22:21:31.524Z,59.00
2023-01-02T22:25:24.222Z,69.93
2023-01-02T22:29:19.223Z,68.75
2023-01-02T22:33:12.867Z,69.93
2023-01-02T22:37:05.852Z,68.90
2023-01-02T22:40:59.362Z,63.20
2023-01-02T22:44:52.388Z,50.33
2023-01-02T22:48:45.696Z,50.60
2023-01-02T22:52:38.495Z,64.22
2023-01-02T22:56:31.665Z,56.30
2023-01-02T23:00:24.444Z,39.78
2023-01-02T23:04:23.595Z,40.33
2023-01-02T23:08:16.493Z,38.65
2023-01-02T23:12:09.591Z,42.55
2023-01-02T23:16:21.440Z,47.00
2023-01-02T23:20:14.043Z,47.03
2023-01-02T23:24:07.390Z,46.35
2023-01-02T23:28:00.202Z,37.45
2023-01-02T23:31:53.729Z,40.53
2023-01-02T23:35:46.488Z,38.97
2023-01-02T23:39:39.848Z,40.05
2023-01-02T23:43:32.912Z,38.90
2023-01-02T23:47:25.339Z,38.85
2023-01-02T23:51:21.451Z,40.35
2023-01-02T23:55:14.383Z,38.53
2023-01-02T23:59:10.687Z,43.53
